Hlavní strana
METAR-TAF:

METAR-TAF

Letiště :

Dayton, Ohio, Spojené státy americké

zeměpisná šířka: 39-35-20N, zeměpisná délka: 084-13-29W, výška: 292 m

Aktuální stav počasí

Zpráva byla vytvořena před 1 hodinou a 0 minutami, v 00:53 UTC
Jihojihozápadní vítr 3 kt
Teplota 7°C
Vlhkost vzduchu 81%
Tlak 1013 hPa
Viditelnost: 9.7 km
Oblačno až skoro zataženo ve výšce 6000 ft
Zataženo ve výšce 8000 ft
zákal

METAR: KMGY 200053Z AUTO 20003KT 6SM HZ BKN060 OVC080 07/04 A2990 RMK AO2 RAB31E43 SLP128 P0000 T00720039

Čas: 20:53 (01:53 UTC)


TAF: chybějící

Stav a předpovědi počasí z více než 4 000 letišť (zprávy METAR a TAF).

Červené a žluté tečky na mapě představují dostupné meteorologické stanice.

Když kurzor umístíte na tečku, zobrazí se název stanice.

Pak kliknutím zobrazíte stav a předpověď počasí.

Chcete-li změnit mapu, kliknutím na zelené tlačítko se znaménkem +mapu přiblížíte, kliknutím na zelené tlačítko se znaménkem – mapu oddálíte a kliknutím na zelené šipky přejdete na sousední mapy.


METAR-TAF: